Tiempo atmosférico en la estación meteorológica de Fresno de Cantiespino, Segovia (993 m.)



Fecha
DESCASC
Temp. máxima en grados centígrados (hora)
DESCASC
Temp. mínima en grados centígrados (hora)
DESCASC
Temp. media en grados centígrados
DESCASC
Racha de viento máxima en m/sg (hora)
DESCASC
Velocidad máxima media en intervalos de 10 minutos(hora)
DESCASC
Precipitaciones diarias en mm
DESCASC
Precipitaciones de 00:00 a 06:00 en mm
DESCASC
Precipitaciones de 06:00 a 12:00 en mm
DESCASC
Precipitaciones de 12:00 a 18:00 en mm
DESCASC
Precipitaciones de 18:00 a 24:00 en mm
DESCASC

Gráficas

Temp. máximas Temp. mínimas Temp. medias Precipitaciones Rachas de viento máximas Velocidades máximas media en intervalos de 10 minutos

Datos horarios

Fecha y hora oficial Temperatura (ºC) Velocidad del viento (km/h) Dirección del viento Racha (km/h) Dirección de racha Precipitación (mm) Presión (hPa) Tendencia (hPa) Humedad (%)
2018-09-22 23:00:00 15.1 10 Sudoeste 13 Sur 0 -- -- 64
2018-09-22 22:00:00 16.5 11 Sur 13 Sur 0 -- -- 60
2018-09-22 21:00:00 17.5 10 Sudoeste 11 Sudoeste 0 -- -- 60
2018-09-22 20:00:00 25.2 3 Norte 12 Norte 0 -- -- 36
2018-09-22 19:00:00 28.7 5 Oeste 12 Oeste 0 -- -- 26
2018-09-22 18:00:00 29.5 7 Oeste 15 Oeste 0 -- -- 23
2018-09-22 17:00:00 29.3 12 Sudoeste 22 Oeste 0 -- -- 26
2018-09-22 16:00:00 28.9 11 Oeste 22 Oeste 0 -- -- 27
2018-09-22 15:00:00 28.3 12 Oeste 23 Oeste 0 -- -- 31
2018-09-22 14:00:00 27.2 10 Oeste 23 Sudoeste 0 -- -- 36
2018-09-22 13:00:00 26.1 9 Noroeste 14 Noroeste 0 -- -- 37
2018-09-22 12:00:00 24.5 4 Nordeste 8 Nordeste 0 -- -- 39
2018-09-22 11:00:00 21.2 2 Este 4 Este 0 -- -- 50
2018-09-22 10:00:00 15.8 0 Calma 5 Norte 0 -- -- 76
2018-09-22 09:00:00 11.6 0 Calma 8 Sudeste 0 -- -- 89
2018-09-22 08:00:00 9.7 3 Noroeste 8 Sur 0 -- -- 91
2018-09-22 07:00:00 10 6 Sur 8 Sudoeste 0 -- -- 91
2018-09-22 06:00:00 10.5 2 Sur 6 Sudoeste 0 -- -- 90
2018-09-22 05:00:00 10.8 4 Sudoeste 8 Sudoeste 0 -- -- 88
2018-09-22 04:00:00 11.3 5 Sudoeste 11 Sudoeste 0 -- -- 88
2018-09-22 03:00:00 11.7 8 Sudoeste 9 Sudoeste 0 -- -- 87
2018-09-22 02:00:00 12.5 4 Sur 8 Sudoeste 0 -- -- 85
2018-09-22 01:00:00 14.2 0 Calma 12 Sudoeste 0 -- -- 78
2018-09-22 00:00:00 14.3 10 Sudoeste 13 Sur 0 -- -- 78
2018-09-21 23:00:00 15.4 9 Sudoeste 13 Sudoeste 0 -- -- 75
2018-09-21 22:00:00 16.4 10 Sur 12 Sur 0 -- -- 73
2018-09-21 21:00:00 18.1 9 Sur 10 Sur 0 -- -- 68
2018-09-21 20:00:00 22.2 5 Oeste 10 Noroeste 0 -- -- 57
2018-09-21 19:00:00 26 7 Oeste 19 Oeste 0 -- -- 38
2018-09-21 18:00:00 26.2 13 Oeste 25 Oeste 0 -- -- 39
2018-09-21 17:00:00 26.8 17 Oeste 28 Oeste 0 -- -- 37
2018-09-21 16:00:00 26.9 14 Oeste 26 Oeste 0 -- -- 37
2018-09-21 15:00:00 26 12 Oeste 23 Oeste 0 -- -- 40
2018-09-21 14:00:00 25 12 Oeste 22 Oeste 0 -- -- 39
2018-09-21 13:00:00 23.2 15 Oeste 22 Oeste 0 -- -- 41
2018-09-21 12:00:00 22 13 Sudoeste 21 Sudoeste 0 -- -- 49
2018-09-21 11:00:00 20.1 12 Sudoeste 22 Sudoeste 0 -- -- 54
2018-09-21 10:00:00 17.7 15 Sudoeste 23 Sudoeste 0 -- -- 62
2018-09-21 09:00:00 15 4 Sudoeste 12 Sur 0 -- -- 76
2018-09-21 08:00:00 13.3 7 Sudoeste 14 Sur 0 -- -- 78
2018-09-21 07:00:00 13.9 13 Sur 17 Sur 0 -- -- 80
2018-09-21 06:00:00 13.8 9 Sur 12 Sur 0 -- -- 80
2018-09-21 05:00:00 14.1 10 Sur 13 Sudoeste 0 -- -- 81
2018-09-21 04:00:00 15.1 8 Sudoeste 13 Sur 0 -- -- 77
2018-09-21 03:00:00 15.9 10 Sudoeste 14 Sudoeste 0 -- -- 76
2018-09-21 02:00:00 14.5 10 Sur 13 Sur 0 -- -- 84
2018-09-21 01:00:00 15.1 2 Nordeste 17 Norte 0 -- -- 84
2018-09-21 00:00:00 14.9 4 Sur 6 Sur 0 -- -- 85
2018-09-20 23:00:00 15.2 4 Sudoeste 5 Sudoeste 0 -- -- 84
2018-09-20 22:00:00 17.4 0 Calma 14 Sudoeste 0 -- -- 74
2018-09-20 21:00:00 18.3 10 Sur 16 Sudoeste 0 -- -- 63
2018-09-20 20:00:00 20.4 10 Sudoeste 23 Sudoeste 0 -- -- 61
2018-09-20 19:00:00 20.9 18 Sudoeste 28 Sudoeste 0 -- -- 57
2018-09-20 18:00:00 19.9 14 Sudoeste 56 Oeste 8 -- -- 70
2018-09-20 17:00:00 28.2 18 Sudoeste 32 Sudoeste 0 -- -- 35
2018-09-20 16:00:00 29.5 13 Sudoeste 27 Sudoeste 0 -- -- 33
2018-09-20 15:00:00 29 14 Sudoeste 34 Oeste 0 -- -- 34
2018-09-20 14:00:00 28 17 Sudoeste 27 Sudoeste 0 -- -- 37
2018-09-20 13:00:00 27.1 16 Oeste 27 Oeste 0 -- -- 38
2018-09-20 12:00:00 25.8 13 Oeste 22 Oeste 0 -- -- 38
2018-09-20 11:00:00 22.9 2 Sudeste 6 Sudoeste 0 -- -- 54
2018-09-20 10:00:00 18.3 0 Calma 4 Nordeste 0 -- -- 74
2018-09-20 09:00:00 13.3 3 Sur 8 Sudoeste 0 -- -- 92
2018-09-20 08:00:00 11.5 6 Norte 10 Sudoeste 0 -- -- 92
2018-09-20 07:00:00 11.5 7 Sudoeste 10 Sudoeste 0 -- -- 93
2018-09-20 06:00:00 12.1 0 Calma 9 Sudoeste 0 -- -- 92
2018-09-20 05:00:00 12.1 6 Sur 8 Sur 0 -- -- 91
2018-09-20 04:00:00 13 2 Sur 10 Sudoeste 0 -- -- 89
2018-09-20 03:00:00 12.9 6 Sudoeste 8 Sudoeste 0 -- -- 89
2018-09-20 02:00:00 13.6 0 Calma 10 Sur 0 -- -- 88
2018-09-20 01:00:00 14.2 8 Sur 10 Sudoeste 0 -- -- 87
2018-09-20 00:00:00 15.3 6 Sudoeste 9 Sur 0 -- -- 84
2018-09-19 23:00:00 16.3 3 Sur 9 Sudoeste 0 -- -- 81
2018-09-19 22:00:00 17.6 8 Sudoeste 10 Sur 0 -- -- 77
2018-09-19 21:00:00 19.7 8 Sur 10 Sudoeste 0 -- -- 68
2018-09-19 20:00:00 24.1 5 Sudoeste 8 Sudoeste 0 -- -- 53
2018-09-19 19:00:00 26 6 Sur 9 Sur 0 -- -- 47
2018-09-19 18:00:00 25.6 6 Sur 11 Este 0 -- -- 45
2018-09-19 17:00:00 27.9 6 Este 17 Sudeste 0 -- -- 36
2018-09-19 16:00:00 27.9 5 Sur 18 Sudeste 0 -- -- 37
2018-09-19 15:00:00 27.4 5 Nordeste 17 Oeste 0 -- -- 38
2018-09-19 14:00:00 26.2 4 Este 13 Norte 0 -- -- 43
2018-09-19 13:00:00 24.7 5 Oeste 16 Oeste 0 -- -- 48
2018-09-19 12:00:00 23.1 4 Norte 12 Nordeste 0 -- -- 56
2018-09-19 11:00:00 20.5 2 Sudeste 6 Nordeste 0 -- -- 72
2018-09-19 10:00:00 16.7 2 Sudeste 6 Sur 0 -- -- 87
2018-09-19 09:00:00 12.5 4 Sudoeste 8 Sudoeste 0 -- -- 97
2018-09-19 08:00:00 10.5 0 Calma 6 Sudoeste 0 -- -- 95
2018-09-19 07:00:00 10.9 4 Sudoeste 9 Noroeste 0 -- -- 94
2018-09-19 06:00:00 11.7 5 Sudoeste 8 Sur 0 -- -- 95
2018-09-19 05:00:00 12.1 5 Sur 11 Sur 0 -- -- 94
2018-09-19 04:00:00 12.6 8 Sudoeste 10 Sudoeste 0 -- -- 94
2018-09-19 03:00:00 13.1 6 Sudoeste 8 Sur 0 -- -- 93
2018-09-19 02:00:00 14.1 2 Sur 12 Sur 0 -- -- 92
2018-09-19 01:00:00 14.3 5 Sudoeste 9 Sudoeste 0 -- -- 92
2018-09-19 00:00:00 15.4 3 Sudoeste 17 Sur 0 -- -- 89
2018-09-18 23:00:00 16.4 13 Sur 19 Sur 0 -- -- 84
2018-09-18 22:00:00 16.8 9 Sur 17 Sur 0.6 -- -- 86
2018-09-18 21:00:00 17 9 Sudoeste 37 Sudeste 4.6 -- -- 84
2018-09-18 20:00:00 19.5 14 Sudoeste 30 Sudoeste 0.4 -- -- 71
2018-09-18 19:00:00 22.1 5 Sur 22 Sudoeste 0 -- -- 56
2018-09-18 18:00:00 24 4 Sur 8 Sur 0 -- -- 60
2018-09-18 17:00:00 24 5 Sur 12 Sudeste 0 -- -- 62
2018-09-18 16:00:00 24.3 3 Este 23 Norte 0 -- -- 52
2018-09-18 15:00:00 26.3 15 Norte 27 Sur 0 -- -- 41
2018-09-18 14:00:00 26.1 10 Sudoeste 19 Sudoeste 0 -- -- 43
2018-09-18 13:00:00 24.8 8 Sudoeste 22 Oeste 0 -- -- 46
2018-09-18 12:00:00 23.3 10 Oeste 22 Oeste 0 -- -- 51
2018-09-18 11:00:00 21.7 14 Oeste 23 Oeste 0 -- -- 56
2018-09-18 10:00:00 19.7 4 Norte 8 Norte 0 -- -- 69
2018-09-18 09:00:00 14.1 4 Sudoeste 6 Sudoeste 0 -- -- 89
2018-09-18 08:00:00 13.5 3 Sudoeste 9 Sudoeste 0 -- -- 89
2018-09-18 07:00:00 14.2 0 Calma 6 Norte 0 -- -- 85
2018-09-18 06:00:00 14.6 0 Calma 9 Sur 0 -- -- 83
2018-09-18 05:00:00 15.2 7 Sudoeste 10 Sur 0 -- -- 82
2018-09-18 04:00:00 15.1 6 Sudoeste 9 Sudoeste 0 -- -- 81
2018-09-18 03:00:00 17.2 2 Oeste 15 Noroeste 0 -- -- 77
2018-09-18 02:00:00 18.5 2 Oeste 23 Noroeste 0 -- -- 66
2018-09-18 01:00:00 18.3 9 Noroeste 20 Sudeste 0 -- -- 70
2018-09-18 00:00:00 19.1 8 Sudeste 32 Sur 0 -- -- 65
2018-09-17 23:00:00 18.3 3 Este 16 Este 0 -- -- 64
2018-09-17 22:00:00 19.5 9 Este 17 Nordeste 0 -- -- 61
2018-09-17 21:00:00 19.5 2 Sur 9 Este 0 -- -- 62
2018-09-17 20:00:00 22.7 2 Este 15 Noroeste 0 -- -- 51
2018-09-17 19:00:00 25.3 13 Norte 24 Norte 0.2 -- -- 42
2018-09-17 18:00:00 25.2 11 Norte 20 Noroeste 0 -- -- 41
2018-09-17 17:00:00 24.5 8 Noroeste 15 Oeste 0 -- -- 54
2018-09-17 16:00:00 23.5 9 Nordeste 22 Nordeste 0.4 -- -- 54
2018-09-17 15:00:00 22.2 20 Sudeste 33 Sudeste 0.4 -- -- 50
2018-09-17 14:00:00 20.7 17 Oeste 43 Oeste 0.4 -- -- 69
2018-09-17 13:00:00 26.8 12 Oeste 17 Oeste 0 -- -- 43
2018-09-17 12:00:00 25.9 8 Nordeste 15 Este 0 -- -- 44
2018-09-17 11:00:00 22.8 6 Nordeste 10 Nordeste 0 -- -- 50
2018-09-17 10:00:00 18.9 4 Este 6 Este 0 -- -- 60
2018-09-17 09:00:00 14 0 Calma 5 Nordeste 0 -- -- 75
2018-09-17 08:00:00 12.7 0 Calma 7 Norte 0 -- -- 79
2018-09-17 07:00:00 12.4 0 Calma 12 Sur 0 -- -- 80
2018-09-17 06:00:00 12.8 5 Sudoeste 12 Sudoeste 0 -- -- 79
2018-09-17 05:00:00 12.4 9 Sur 14 Sur 0 -- -- 81
2018-09-17 04:00:00 12.4 0 Calma 10 Sudoeste 0 -- -- 81
2018-09-17 03:00:00 12.8 5 Sur 10 Sudoeste 0 -- -- 78
2018-09-17 02:00:00 13.6 5 Sudoeste 12 Sur 0 -- -- 75
2018-09-17 01:00:00 14.3 8 Sur 11 Sur 0 -- -- 74
2018-09-17 00:00:00 15.2 8 Sudoeste 10 Sur 0 -- -- 73
2018-09-16 23:00:00 16.8 8 Sur 10 Sudoeste 0 -- -- 67
2018-09-16 22:00:00 18.9 3 Este 9 Sudoeste 0 -- -- 60
2018-09-16 21:00:00 21.6 8 Sudoeste 12 Sur 0 -- -- 52
2018-09-16 20:00:00 23.4 0 Calma 5 Nordeste 0 -- -- 48
2018-09-16 19:00:00 27 3 Nordeste 25 Noroeste 0 -- -- 37
2018-09-16 18:00:00 28 3 Sur 14 Noroeste 0 -- -- 32
2018-09-16 17:00:00 28.6 8 Norte 24 Norte 0 -- -- 30
2018-09-16 16:00:00 28.9 9 Norte 23 Norte 0 -- -- 31
2018-09-16 15:00:00 28.4 6 Nordeste 19 Norte 0 -- -- 33
2018-09-16 14:00:00 28 6 Norte 20 Oeste 0 -- -- 31
2018-09-16 13:00:00 26.1 12 Oeste 25 Oeste 0 -- -- 38
2018-09-16 12:00:00 25.2 9 Sudoeste 21 Oeste 0 -- -- 44
2018-09-16 11:00:00 22.6 8 Sudoeste 18 Oeste 0 -- -- 50
2018-09-16 10:00:00 17.8 3 Nordeste 7 Nordeste 0 -- -- 69
2018-09-16 09:00:00 13.2 2 Sur 10 Sudoeste 0 -- -- 87
2018-09-16 08:00:00 10.3 8 Sur 9 Sur 0 -- -- 90
2018-09-16 07:00:00 10.8 5 Sudoeste 9 Sudoeste 0 -- -- 88
2018-09-16 06:00:00 11.6 5 Sur 6 Sur 0 -- -- 87
2018-09-16 05:00:00 12 2 Sur 5 Sudeste 0 -- -- 83
2018-09-16 04:00:00 13.3 4 Nordeste 9 Sur 0 -- -- 80
2018-09-16 03:00:00 13.6 8 Sudoeste 12 Sur 0 -- -- 81
2018-09-16 02:00:00 14.1 8 Sur 12 Sur 0 -- -- 76
2018-09-16 01:00:00 15.3 6 Sur 13 Sudoeste 0 -- -- 71
2018-09-16 00:00:00 17.3 2 Sur 14 Sudoeste 0 -- -- 63
2018-09-15 23:00:00 19.1 11 Sudoeste 14 Sudoeste 0 -- -- 57
2018-09-15 22:00:00 18.5 9 Sudoeste 10 Sur 0 -- -- 61
2018-09-15 21:00:00 20.7 7 Sur 12 Sur 0 -- -- 55
2018-09-15 20:00:00 25.3 6 Sudoeste 12 Sur 0 -- -- 43
2018-09-15 19:00:00 27.7 5 Sudoeste 16 Sudeste 0 -- -- 36
2018-09-15 18:00:00 27.2 9 Sur 20 Sur 0 -- -- 37
2018-09-15 17:00:00 27.2 13 Sur 27 Sur 0 -- -- 41
2018-09-15 16:00:00 25.5 15 Sur 21 Sur 0 -- -- 44
2018-09-15 15:00:00 28.3 7 Oeste 13 Sudoeste 0 -- -- 31
2018-09-15 14:00:00 27.3 5 Sudeste 16 Norte 0 -- -- 37
2018-09-15 13:00:00 26 7 Oeste 18 Sudoeste 0 -- -- 41
2018-09-15 12:00:00 24.8 9 Sudoeste 19 Sudoeste 0 -- -- 48
2018-09-15 11:00:00 21.7 9 Oeste 14 Oeste 0 -- -- 56
2018-09-15 10:00:00 17.3 2 Nordeste 9 Sudoeste 0 -- -- 70
2018-09-15 09:00:00 12 3 Sur 9 Sudoeste 0 -- -- 90
2018-09-15 08:00:00 9.6 6 Sudoeste 8 Sudoeste 0 -- -- 91
2018-09-15 07:00:00 10 6 Sur 9 Sudoeste 0 -- -- 90
2018-09-15 06:00:00 10.7 5 Sudoeste 8 Sur 0 -- -- 87
2018-09-15 05:00:00 11.2 5 Sudoeste 10 Sudoeste 0 -- -- 86
2018-09-15 04:00:00 11.7 5 Sudoeste 9 Sudoeste 0 -- -- 83
2018-09-15 03:00:00 12.4 6 Sur 11 Sudoeste 0 -- -- 79
2018-09-15 02:00:00 15.7 0 Calma 17 Este 0 -- -- 68
2018-09-15 01:00:00 18.3 9 Este 19 Este 0 -- -- 59
2018-09-15 00:00:00 19.4 13 Este 24 Este 0 -- -- 58
2018-09-14 23:00:00 18.8 12 Este 18 Este 0 -- -- 56
2018-09-14 22:00:00 16.3 8 Sur 9 Sur 0 -- -- 65
2018-09-14 21:00:00 20 0 Calma 12 Norte 0 -- -- 49
2018-09-14 20:00:00 25.1 10 Norte 15 Noroeste 0 -- -- 37
2018-09-14 19:00:00 26.9 15 Norte 22 Norte 0 -- -- 31
2018-09-14 18:00:00 28.5 13 Norte 24 Norte 0 -- -- 29
2018-09-14 17:00:00 28.6 13 Norte 26 Norte 0 -- -- 28
2018-09-14 16:00:00 29.3 13 Nordeste 24 Norte 0 -- -- 27
2018-09-14 15:00:00 28.4 5 Noroeste 24 Noroeste 0 -- -- 30
2018-09-14 14:00:00 28 11 Nordeste 18 Nordeste 0 -- -- 30
2018-09-14 13:00:00 27.2 6 Nordeste 13 Norte 0 -- -- 31
2018-09-14 12:00:00 25 4 Nordeste 8 Nordeste 0 -- -- 40
2018-09-14 11:00:00 20.7 4 Nordeste 8 Este 0 -- -- 54
2018-09-14 10:00:00 16.5 2 Nordeste 4 Nordeste 0 -- -- 67
2018-09-14 09:00:00 11.5 0 Calma 7 Sudoeste 0 -- -- 89
2018-09-14 08:00:00 8.2 3 Sudoeste 9 Sudoeste 0 -- -- 92
2018-09-14 07:00:00 8.6 6 Sur 10 Sur 0 -- -- 91
2018-09-14 06:00:00 8.7 7 Sudoeste 9 Sudoeste 0 -- -- 90
2018-09-14 05:00:00 9.2 7 Sudoeste 8 Sudoeste 0 -- -- 89
2018-09-14 04:00:00 10.1 8 Sudoeste 10 Sur 0 -- -- 87
2018-09-14 03:00:00 11.3 5 Sur 10 Sudoeste 0 -- -- 84
2018-09-14 02:00:00 11.5 8 Sur 9 Sudoeste 0 -- -- 82
2018-09-14 01:00:00 13.2 3 Sur 9 Sudoeste 0 -- -- 75
2018-09-14 00:00:00 14.4 6 Sudoeste 10 Sur 0 -- -- 71
2018-09-13 23:00:00 15 6 Sudoeste 10 Sur 0 -- -- 69
2018-09-13 22:00:00 16.3 9 Sudoeste 10 Sur 0 -- -- 67
2018-09-13 21:00:00 21.2 0 Calma 15 Norte 0 -- -- 50
2018-09-13 20:00:00 25.9 6 Norte 19 Noroeste 0 -- -- 37
2018-09-13 19:00:00 28 10 Oeste 22 Noroeste 0 -- -- 28
2018-09-13 18:00:00 28.6 13 Noroeste 23 Oeste 0 -- -- 31
2018-09-13 17:00:00 28.7 10 Noroeste 24 Sudoeste 0 -- -- 29
2018-09-13 16:00:00 28.4 13 Oeste 24 Sudoeste 0 -- -- 30
2018-09-13 15:00:00 28.4 7 Sudoeste 21 Sudoeste 0 -- -- 37
2018-09-13 14:00:00 26.8 10 Sudoeste 24 Oeste 0 -- -- 37
2018-09-13 13:00:00 25.7 12 Oeste 26 Oeste 0 -- -- 41
2018-09-13 12:00:00 24.2 18 Oeste 25 Oeste 0 -- -- 43
2018-09-13 11:00:00 23 14 Sudoeste 24 Oeste 0 -- -- 48
2018-09-13 10:00:00 19.3 3 Sudoeste 8 Sudoeste 0 -- -- 62
2018-09-13 09:00:00 12.4 5 Sudoeste 9 Sudoeste 0 -- -- 89
2018-09-13 08:00:00 9.5 5 Sur 6 Sur 0 -- -- 91
2018-09-13 07:00:00 10.1 4 Sudoeste 12 Sudoeste 0 -- -- 89
2018-09-13 06:00:00 10.5 8 Sur 10 Sur 0 -- -- 90
2018-09-13 05:00:00 11.2 6 Sudoeste 8 Sur 0 -- -- 87
2018-09-13 04:00:00 12.1 4 Sudoeste 9 Sudoeste 0 -- -- 86
2018-09-13 03:00:00 11.8 9 Sudoeste 10 Sur 0 -- -- 85
2018-09-13 02:00:00 12.3 8 Sudoeste 10 Sur 0 -- -- 83
2018-09-13 01:00:00 14.3 2 Sur 11 Sur 0 -- -- 76
2018-09-13 00:00:00 15.3 10 Sur 12 Sur 0 -- -- 72
2018-09-12 23:00:00 15.6 9 Sudoeste 14 Sudoeste 0 -- -- 74
2018-09-12 22:00:00 16.8 9 Sudoeste 12 Sudoeste 0 -- -- 71
2018-09-12 21:00:00 19.5 6 Sudoeste 9 Sur 0 -- -- 57
2018-09-12 20:00:00 25.8 6 Noroeste 24 Oeste 0 -- -- 37
2018-09-12 19:00:00 27.5 10 Oeste 22 Oeste 0 -- -- 32
2018-09-12 18:00:00 27.8 9 Oeste 22 Noroeste 0 -- -- 33
2018-09-12 17:00:00 27.9 7 Noroeste 25 Sur 0 -- -- 32
2018-09-12 16:00:00 27 5 Sudeste 25 Sudoeste 0 -- -- 39
2018-09-12 15:00:00 25.1 15 Sudoeste 28 Oeste 0 -- -- 45
2018-09-12 14:00:00 26.1 9 Sudoeste 19 Oeste 0 -- -- 42
2018-09-12 13:00:00 24.7 10 Sudoeste 20 Oeste 0 -- -- 47
2018-09-12 12:00:00 23.2 12 Oeste 21 Oeste 0 -- -- 51
2018-09-12 11:00:00 20.8 2 Nordeste 6 Norte 0 -- -- 63
2018-09-12 10:00:00 17 3 Nordeste 7 Nordeste 0 -- -- 78
2018-09-12 09:00:00 11.7 3 Sudoeste 9 Este 0 -- -- 96
2018-09-12 08:00:00 10 5 Sudoeste 7 Sur 0 -- -- 94
2018-09-12 07:00:00 10.7 6 Sur 9 Sur 0 -- -- 93
2018-09-12 06:00:00 11.1 6 Sudoeste 9 Sudoeste 0 -- -- 92
2018-09-12 05:00:00 11.9 6 Sudoeste 8 Sur 0 -- -- 92
2018-09-12 04:00:00 12.4 5 Sudoeste 7 Sudoeste 0 -- -- 89
2018-09-12 03:00:00 14.8 0 Calma 10 Este 0 -- -- 80
2018-09-12 02:00:00 15.2 4 Nordeste 8 Sudeste 0 -- -- 83
2018-09-12 01:00:00 14.8 4 Sur 7 Sur 0 -- -- 85
2018-09-12 00:00:00 15.7 7 Oeste 18 Sur 0 -- -- 78
2018-09-11 23:00:00 16.8 12 Sur 23 Sur 0 -- -- 70
2018-09-11 22:00:00 17.2 11 Sudeste 18 Sudeste 0 -- -- 72
2018-09-11 21:00:00 17.7 7 Nordeste 12 Nordeste 0 -- -- 70
2018-09-11 20:00:00 17.4 6 Nordeste 24 Este 0 -- -- 73
2018-09-11 19:00:00 17.9 14 Sudeste 31 Sudeste 0.2 -- -- 78
2018-09-11 18:00:00 22.6 19 Este 44 Nordeste 0 -- -- 51
2018-09-11 17:00:00 25.2 12 Sudeste 28 Este 0 -- -- 40
2018-09-11 16:00:00 26.7 15 Sudeste 32 Este 0 -- -- 35
2018-09-11 15:00:00 26.3 15 Este 28 Nordeste 0 -- -- 36
2018-09-11 14:00:00 26.1 17 Este 29 Este 0 -- -- 33
2018-09-11 13:00:00 24.9 6 Sur 16 Noroeste 0 -- -- 43
2018-09-11 12:00:00 23.3 5 Oeste 14 Noroeste 0 -- -- 48
2018-09-11 11:00:00 21.6 6 Norte 12 Norte 0 -- -- 56
2018-09-11 10:00:00 19 4 Nordeste 9 Sudeste 0 -- -- 69
2018-09-11 09:00:00 13 0 Calma 7 Sudoeste 0 -- -- 94
2018-09-11 08:00:00 9.5 6 Sur 13 Sudoeste 0 -- -- 95
2018-09-11 07:00:00 9.6 5 Sudoeste 8 Sur 0 -- -- 93
2018-09-11 06:00:00 9.8 7 Sudoeste 9 Sudoeste 0 -- -- 92
2018-09-11 05:00:00 10.2 6 Sur 9 Sudoeste 0 -- -- 91
2018-09-11 04:00:00 10.8 7 Sudoeste 11 Sudoeste 0 -- -- 90
2018-09-11 03:00:00 11.3 6 Sudoeste 9 Sudoeste 0 -- -- 88
2018-09-11 02:00:00 12.6 3 Sudoeste 8 Sur 0 -- -- 84
2018-09-11 01:00:00 15.4 0 Calma 17 Este 0 -- -- 74
2018-09-11 00:00:00 17.8 9 Sudeste 17 Sudeste 0 -- -- 65
2018-09-10 23:00:00 17.8 8 Este 19 Este 0 -- -- 66
2018-09-10 22:00:00 19.8 11 Sudeste 18 Este 0 -- -- 59
2018-09-10 21:00:00 20.5 8 Este 24 Este 0 -- -- 55
2018-09-10 20:00:00 23.7 13 Este 28 Nordeste 0 -- -- 45
2018-09-10 19:00:00 24.3 12 Este 32 Este 0 -- -- 44
2018-09-10 18:00:00 25.3 11 Este 24 Este 0 -- -- 39
2018-09-10 17:00:00 25.5 17 Nordeste 31 Nordeste 0 -- -- 41
2018-09-10 16:00:00 25.2 15 Nordeste 27 Nordeste 0 -- -- 41
2018-09-10 15:00:00 23.7 14 Nordeste 27 Nordeste 0 -- -- 44
2018-09-10 14:00:00 24.5 15 Nordeste 26 Nordeste 0 -- -- 44
2018-09-10 13:00:00 24.3 10 Nordeste 21 Nordeste 0 -- -- 44
2018-09-10 12:00:00 22.4 4 Noroeste 10 Norte 0 -- -- 53
2018-09-10 11:00:00 20.3 3 Este 6 Nordeste 0 -- -- 55
2018-09-10 10:00:00 16.8 4 Nordeste 6 Sudoeste 0 -- -- 72
2018-09-10 09:00:00 11.8 3 Sur 10 Sudoeste 0 -- -- 91
2018-09-10 08:00:00 9.3 6 Sur 9 Sur 0 -- -- 93
2018-09-10 07:00:00 9.8 5 Sudoeste 8 Sur 0 -- -- 92
2018-09-10 06:00:00 10.5 4 Sudoeste 10 Sur 0 -- -- 91
2018-09-10 05:00:00 10.9 6 Sudoeste 10 Sudoeste 0 -- -- 90
2018-09-10 04:00:00 12.4 6 Sur 9 Sur 0 -- -- 86
2018-09-10 03:00:00 15.1 2 Noroeste 19 Este 0 -- -- 80
2018-09-10 02:00:00 16.3 11 Este 23 Este 0 -- -- 76
2018-09-10 01:00:00 16.1 6 Este 14 Este 0 -- -- 72
2018-09-10 00:00:00 17.1 8 Este 15 Norte 0 -- -- 72
2018-09-09 23:00:00 17.9 8 Norte 13 Norte 0 -- -- 70
2018-09-09 22:00:00 18.6 2 Norte 22 Norte 0 -- -- 64
2018-09-09 21:00:00 20.4 17 Norte 25 Norte 0 -- -- 57
2018-09-09 20:00:00 23.2 12 Noroeste 22 Noroeste 0 -- -- 41
2018-09-09 19:00:00 24.7 13 Noroeste 27 Norte 0 -- -- 36
2018-09-09 18:00:00 25.1 15 Norte 24 Norte 0 -- -- 35
2018-09-09 17:00:00 24.1 8 Noroeste 18 Nordeste 0 -- -- 40
2018-09-09 16:00:00 24.1 8 Norte 20 Nordeste 0 -- -- 41
2018-09-09 15:00:00 23.4 7 Norte 20 Norte 0 -- -- 45
2018-09-09 14:00:00 23.7 6 Oeste 17 Sudoeste 0 -- -- 41
2018-09-09 13:00:00 22.2 8 Noroeste 17 Sudoeste 0 -- -- 41
2018-09-09 12:00:00 21 5 Oeste 14 Oeste 0 -- -- 54
2018-09-09 11:00:00 18.9 4 Este 8 Nordeste 0 -- -- 62
2018-09-09 10:00:00 15.5 0 Calma 7 Oeste 0 -- -- 75
2018-09-09 09:00:00 11.9 0 Calma 7 Sudoeste 0 -- -- 91
2018-09-09 08:00:00 9.7 4 Sur 16 Noroeste 0 -- -- 92
2018-09-09 07:00:00 11.1 2 Norte 15 Sur 0 -- -- 88
2018-09-09 06:00:00 11.9 7 Sudoeste 13 Sur 0 -- -- 85
2018-09-09 05:00:00 12.5 8 Sudoeste 21 Sudoeste 0 -- -- 83
2018-09-09 04:00:00 13.1 16 Sur 31 Sudoeste 0 -- -- 83
2018-09-09 03:00:00 13.8 25 Sudoeste 58 Sudoeste 0 -- -- 81
2018-09-09 02:00:00 16 5 Sur 10 Sudoeste 0 -- -- 81
2018-09-09 01:00:00 16.8 5 Sudoeste 9 Sudoeste 0 -- -- 79
2018-09-09 00:00:00 18.1 2 Sudeste 15 Nordeste 0 -- -- 69
2018-09-08 23:00:00 18.5 10 Nordeste 23 Sudeste 0 -- -- 68
2018-09-08 22:00:00 18.9 17 Sudeste 28 Sudeste 0 -- -- 65
2018-09-08 21:00:00 17.6 7 Sur 14 Sudeste 0 -- -- 73
2018-09-08 20:00:00 18.7 9 Sur 13 Sur 0 -- -- 69
2018-09-08 19:00:00 19.9 6 Sudoeste 15 Sudoeste 0 -- -- 60
2018-09-08 18:00:00 20.3 14 Sudoeste 26 Sur 0 -- -- 61
2018-09-08 17:00:00 21.8 15 Sudoeste 42 Sudoeste 0 -- -- 53
2018-09-08 16:00:00 24.1 23 Sudoeste 41 Sudoeste 0 -- -- 44
2018-09-08 15:00:00 24.1 15 Sur 31 Sur 0 -- -- 48
2018-09-08 14:00:00 24.6 23 Sur 37 Sur 0 -- -- 47
2018-09-08 13:00:00 24.7 10 Este 19 Este 0 -- -- 44
2018-09-08 12:00:00 22.8 6 Nordeste 13 Nordeste 0 -- -- 54
2018-09-08 11:00:00 18.9 6 Noroeste 10 Noroeste 0 -- -- 65
2018-09-08 10:00:00 16.7 0 Calma 8 Nordeste 0 -- -- 69
2018-09-08 09:00:00 13.5 0 Calma 4 Oeste 0 -- -- 83
2018-09-08 08:00:00 11.1 4 Sudoeste 8 Norte 0 -- -- 88
2018-09-08 07:00:00 12.6 0 Calma 12 Sur 0 -- -- 80
2018-09-08 06:00:00 13.5 8 Sur 16 Norte 0 -- -- 79
2018-09-08 05:00:00 16 12 Sudoeste 27 Oeste 0 -- -- 68
2018-09-08 04:00:00 17.3 9 Sur 40 Sudeste 0 -- -- 65
2018-09-08 03:00:00 17.7 21 Sudeste 45 Sur 0 -- -- 63
2018-09-08 02:00:00 16.4 2 Sudeste 13 Norte 0 -- -- 75
2018-09-08 01:00:00 17 10 Noroeste 15 Noroeste 0 -- -- 71
2018-09-08 00:00:00 18.5 6 Norte 15 Norte 0 -- -- 67
2018-09-07 23:00:00 19.4 13 Este 28 Este 0 -- -- 60
2018-09-07 22:00:00 19.8 14 Este 30 Este 0 -- -- 59
2018-09-07 21:00:00 20.3 3 Nordeste 9 Norte 0 -- -- 59
2018-09-07 20:00:00 23.2 8 Norte 13 Nordeste 0 -- -- 47
2018-09-07 19:00:00 23.5 9 Nordeste 18 Nordeste 0 -- -- 44
2018-09-07 18:00:00 24.8 8 Norte 18 Nordeste 0 -- -- 41
2018-09-07 17:00:00 24.9 12 Nordeste 23 Norte 0 -- -- 42
2018-09-07 16:00:00 24.2 12 Nordeste 23 Norte 0 -- -- 44
2018-09-07 15:00:00 22.8 9 Nordeste 22 Nordeste 0 -- -- 49
2018-09-07 14:00:00 22.8 16 Norte 28 Nordeste 0 -- -- 51
2018-09-07 13:00:00 22 15 Nordeste 23 Nordeste 0 -- -- 54
2018-09-07 12:00:00 20.4 10 Este 26 Nordeste 0 -- -- 59
2018-09-07 11:00:00 18.3 15 Este 24 Este 0 -- -- 64
2018-09-07 10:00:00 16.5 14 Este 26 Este 0 -- -- 71
2018-09-07 09:00:00 14.1 17 Este 27 Este 0 -- -- 79
2018-09-07 08:00:00 11.9 8 Este 18 Este 0 -- -- 86
2018-09-07 07:00:00 12.1 11 Este 21 Este 0 -- -- 85
2018-09-07 06:00:00 12.5 8 Este 17 Este 0 -- -- 84
2018-09-07 05:00:00 12.6 9 Este 19 Este 0 -- -- 84
2018-09-07 04:00:00 12.7 9 Nordeste 17 Nordeste 0 -- -- 86
2018-09-07 03:00:00 12.9 8 Nordeste 15 Este 0 -- -- 86
2018-09-07 02:00:00 13.5 10 Este 20 Este 0 -- -- 85
2018-09-07 01:00:00 13.7 10 Este 19 Nordeste 0 -- -- 88
2018-09-07 00:00:00 13 5 Este 14 Este 0 -- -- 88
2018-09-06 23:00:00 13.9 5 Norte 12 Norte 0 -- -- 90
2018-09-06 22:00:00 15.1 0 Calma 7 Norte 0 -- -- 86
2018-09-06 21:00:00 16.5 5 Norte 9 Norte 0 -- -- 83
2018-09-06 20:00:00 18.6 6 Este 18 Este 0 -- -- 66
2018-09-06 19:00:00 18.2 11 Este 23 Este 0 -- -- 72
2018-09-06 18:00:00 17.9 13 Norte 21 Norte 0 -- -- 71
2018-09-06 17:00:00 17.4 7 Este 26 Norte 0.4 -- -- 76
2018-09-06 16:00:00 17.3 3 Sudeste 29 Norte 2 -- -- 85
2018-09-06 15:00:00 22.3 8 Sudoeste 22 Sur 0 -- -- 55
2018-09-06 14:00:00 19.1 6 Oeste 19 Oeste 0 -- -- 70
2018-09-06 13:00:00 19.5 4 Noroeste 13 Nordeste 0 -- -- 67
2018-09-06 12:00:00 18.7 3 Nordeste 10 Nordeste 0 -- -- 72
2018-09-06 11:00:00 17.6 4 Sudeste 9 Nordeste 0 -- -- 77
2018-09-06 10:00:00 15.8 3 Nordeste 9 Nordeste 0 -- -- 85
2018-09-06 09:00:00 12.4 2 Este 9 Sudoeste 0 -- -- 96
2018-09-06 08:00:00 10.4 7 Sur 11 Sur 0 -- -- 96
2018-09-06 07:00:00 10.9 4 Sudoeste 12 Sur 0 -- -- 96
2018-09-06 06:00:00 10.9 8 Sur 10 Sur 0 -- -- 95
2018-09-06 05:00:00 11.9 2 Noroeste 11 Sur 0 -- -- 95
2018-09-06 04:00:00 12.5 8 Sudoeste 10 Sudoeste 0 -- -- 94
2018-09-06 03:00:00 12.9 3 Sur 8 Sudoeste 0 -- -- 94
2018-09-06 02:00:00 13.6 3 Sudoeste 10 Sur 0.2 -- -- 94
2018-09-06 01:00:00 14.5 7 Sudoeste 12 Sur 0 -- -- 92
2018-09-06 00:00:00 15.2 8 Sur 16 Sudoeste 1.8 -- -- 92
2018-09-05 23:00:00 15.8 5 Sudoeste 12 Sur 0 -- -- 91
2018-09-05 22:00:00 15.8 9 Oeste 16 Sur 0 -- -- 88
2018-09-05 21:00:00 15.5 6 Sur 10 Sur 0 -- -- 89
2018-09-05 20:00:00 16.7 8 Sudoeste 18 Oeste 0.2 -- -- 87
2018-09-05 19:00:00 18.5 11 Oeste 15 Oeste 0 -- -- 84
2018-09-05 18:00:00 18.5 7 Oeste 14 Sur 0 -- -- 80
2018-09-05 17:00:00 15.6 9 Sur 26 Sur 0.8 -- -- 89
2018-09-05 16:00:00 16.7 13 Sur 34 Sudoeste 2.4 -- -- 87
2018-09-05 15:00:00 21.4 13 Oeste 27 Noroeste 0 -- -- 55
2018-09-05 14:00:00 23.3 14 Oeste 29 Noroeste 0 -- -- 51
2018-09-05 13:00:00 22.4 14 Sudoeste 23 Oeste 0 -- -- 54
2018-09-05 12:00:00 20.6 15 Oeste 22 Oeste 0 -- -- 63
2018-09-05 11:00:00 18.7 11 Oeste 19 Oeste 0 -- -- 68
2018-09-05 10:00:00 15.7 6 Noroeste 9 Noroeste 0 -- -- 82
2018-09-05 09:00:00 12.8 2 Sudoeste 8 Sur 0 -- -- 91
2018-09-05 08:00:00 10.9 2 Sudoeste 9 Noroeste 0 -- -- 91
2018-09-05 07:00:00 11.5 4 Sur 11 Sudoeste 0 -- -- 92
2018-09-05 06:00:00 12.5 5 Sudoeste 10 Sur 0 -- -- 89
2018-09-05 05:00:00 13.3 6 Sur 13 Oeste 0.4 -- -- 90
2018-09-05 04:00:00 12.5 2 Sudoeste 9 Sur 0 -- -- 88
2018-09-05 03:00:00 12.7 3 Sur 6 Sudoeste 0 -- -- 83
2018-09-05 02:00:00 15.1 5 Oeste 13 Sudeste 0 -- -- 72
2018-09-05 01:00:00 15.3 9 Este 16 Sudeste 0 -- -- 68
2018-09-05 00:00:00 16.3 8 Sudeste 12 Sudeste 0 -- -- 67
2018-09-04 23:00:00 18 3 Nordeste 13 Este 0 -- -- 64
2018-09-04 22:00:00 17.4 8 Sur 24 Oeste 0 -- -- 70
2018-09-04 21:00:00 18.4 14 Sudoeste 26 Sudoeste 0 -- -- 63
2018-09-04 20:00:00 18.5 6 Sur 11 Sudoeste 0 -- -- 72
2018-09-04 19:00:00 19.9 6 Sudoeste 15 Oeste 0 -- -- 69
2018-09-04 18:00:00 19.6 10 Sudoeste 25 Oeste 0 -- -- 69
2018-09-04 17:00:00 19.5 22 Oeste 39 Sudoeste 0.8 -- -- 65
2018-09-04 16:00:00 27.5 10 Sudoeste 28 Sudoeste 0 -- -- 33
2018-09-04 15:00:00 28 10 Oeste 22 Oeste 0 -- -- 28
2018-09-04 14:00:00 26.9 11 Sudoeste 25 Sudoeste 0 -- -- 32
2018-09-04 13:00:00 26 11 Sudoeste 25 Sudoeste 0 -- -- 37
2018-09-04 12:00:00 24.5 12 Sudoeste 20 Sudoeste 0 -- -- 41
2018-09-04 11:00:00 20.6 8 Nordeste 11 Nordeste 0 -- -- 58
2018-09-04 10:00:00 17.8 6 Noroeste 11 Norte 0 -- -- 68
2018-09-04 09:00:00 13.3 3 Oeste 7 Sudoeste 0 -- -- 88
2018-09-04 08:00:00 10.1 6 Sudoeste 9 Sudoeste 0 -- -- 91
2018-09-04 07:00:00 10.4 7 Sur 9 Sur 0 -- -- 90
2018-09-04 06:00:00 11 6 Sudoeste 9 Sur 0 -- -- 87
2018-09-04 05:00:00 11.8 3 Sur 9 Sudoeste 0 -- -- 83
2018-09-04 04:00:00 13.1 5 Sudoeste 11 Sur 0 -- -- 78
2018-09-04 03:00:00 15 3 Sur 10 Sudoeste 0 -- -- 70
2018-09-04 02:00:00 14.8 8 Sur 12 Sur 0 -- -- 70
2018-09-04 01:00:00 15.8 8 Sur 11 Sur 0 -- -- 65
2018-09-04 00:00:00 18.4 5 Sur 12 Sudoeste 0 -- -- 54
2018-09-03 23:00:00 19.9 6 Sudoeste 15 Sudoeste 0 -- -- 44
2018-09-03 22:00:00 21.2 7 Sudoeste 15 Oeste 0 -- -- 44
2018-09-03 21:00:00 24.7 13 Sur 18 Sudoeste 0 -- -- 33
2018-09-03 20:00:00 27.1 7 Sudoeste 15 Sudoeste 0 -- -- 38
2018-09-03 19:00:00 28.6 10 Sudoeste 22 Sudoeste 0 -- -- 34
2018-09-03 18:00:00 29 16 Sudoeste 27 Sudoeste 0 -- -- 33
2018-09-03 17:00:00 30.3 9 Sudoeste 28 Nordeste 0 -- -- 30
2018-09-03 16:00:00 29.6 12 Nordeste 35 Norte 0 -- -- 33
2018-09-03 15:00:00 29.8 19 Nordeste 40 Norte 0 -- -- 32
2018-09-03 14:00:00 30.1 13 Sudoeste 29 Sudoeste 0 -- -- 35
2018-09-03 13:00:00 28.1 11 Sur 22 Sur 0 -- -- 41
2018-09-03 12:00:00 27.6 8 Este 16 Sudeste 0 -- -- 37
2018-09-03 11:00:00 23.8 4 Nordeste 10 Nordeste 0 -- -- 61
2018-09-03 10:00:00 21.3 5 Nordeste 19 Sur 0 -- -- 69
2018-09-03 09:00:00 16.1 9 Sur 13 Sur 0 -- -- 87
2018-09-03 08:00:00 16.1 12 Sur 23 Sudoeste 1.2 -- -- 84
2018-09-03 07:00:00 17.1 22 Sudoeste 44 Sudoeste 0.2 -- -- 77
2018-09-03 06:00:00 17.4 5 Sur 41 Sur 1.2 -- -- 78
2018-09-03 05:00:00 20.4 24 Sur 41 Sur 0.2 -- -- 56
2018-09-03 04:00:00 17 11 Sudoeste 40 Sudoeste 0.2 -- -- 73
2018-09-03 03:00:00 17 6 Sudoeste 14 Sudoeste 0 -- -- 58
2018-09-03 02:00:00 18.4 4 Sur 21 Sudoeste 0 -- -- 53
2018-09-03 01:00:00 17.3 3 Noroeste 9 Sur 0 -- -- 53
2018-09-03 00:00:00 17.7 0 Calma 10 Sudoeste 0 -- -- 54
2018-09-02 23:00:00 19.7 9 Sur 16 Sudoeste 0 -- -- 50
2018-09-02 22:00:00 20.2 9 Sur 11 Sudoeste 0 -- -- 49
2018-09-02 21:00:00 26.2 0 Calma 19 Noroeste 0 -- -- 33
2018-09-02 20:00:00 31 7 Noroeste 26 Noroeste 0 -- -- 26
2018-09-02 19:00:00 31.9 16 Noroeste 29 Noroeste 0 -- -- 24
2018-09-02 18:00:00 31.8 9 Oeste 30 Oeste 0 -- -- 24
2018-09-02 17:00:00 32.8 19 Noroeste 30 Oeste 0 -- -- 23
2018-09-02 16:00:00 32.4 17 Noroeste 33 Noroeste 0 -- -- 24
2018-09-02 15:00:00 31.6 9 Noroeste 25 Oeste 0 -- -- 25
2018-09-02 14:00:00 31 7 Norte 15 Norte 0 -- -- 27
2018-09-02 13:00:00 29.5 6 Norte 11 Nordeste 0 -- -- 29
2018-09-02 12:00:00 26.5 4 Norte 10 Nordeste 0 -- -- 40
2018-09-02 11:00:00 22.8 3 Nordeste 8 Nordeste 0 -- -- 47
2018-09-02 10:00:00 19 3 Norte 5 Nordeste 0 -- -- 57
2018-09-02 09:00:00 14.4 0 Calma 9 Sur 0 -- -- 75
2018-09-02 08:00:00 11 8 Sudoeste 10 Sudoeste 0 -- -- 82
2018-09-02 07:00:00 11.4 7 Sudoeste 10 Sudoeste 0 -- -- 80
2018-09-02 06:00:00 12 8 Sudoeste 11 Sudoeste 0 -- -- 78
2018-09-02 05:00:00 12.7 7 Sur 10 Sudoeste 0 -- -- 76
2018-09-02 04:00:00 13.5 7 Sudoeste 10 Sudoeste 0 -- -- 72
2018-09-02 03:00:00 15.1 6 Sudoeste 10 Sudoeste 0 -- -- 66
2018-09-02 02:00:00 16.3 3 Sudoeste 14 Este 0 -- -- 62
2018-09-02 01:00:00 19.1 5 Este 21 Este 0 -- -- 53
2018-09-02 00:00:00 18.3 8 Este 17 Este 0 -- -- 52
2018-09-01 23:00:00 17 3 Sur 10 Sur 0 -- -- 57
2018-09-01 22:00:00 19.5 3 Sudoeste 13 Noroeste 0 -- -- 51
2018-09-01 21:00:00 25.2 8 Noroeste 15 Norte 0 -- -- 34
2018-09-01 20:00:00 28.8 6 Norte 22 Norte 0 -- -- 29
2018-09-01 19:00:00 31 8 Norte 18 Norte 0 -- -- 26
2018-09-01 18:00:00 31.2 8 Noroeste 19 Nordeste 0 -- -- 25
2018-09-01 17:00:00 31.2 10 Norte 19 Norte 0 -- -- 25
2018-09-01 16:00:00 30.7 12 Noroeste 21 Noroeste 0 -- -- 27
2018-09-01 15:00:00 30 11 Norte 19 Norte 0 -- -- 29
2018-09-01 14:00:00 28.7 5 Sur 18 Nordeste 0 -- -- 33
2018-09-01 13:00:00 28.1 9 Norte 21 Nordeste 0 -- -- 36
2018-09-01 12:00:00 26.6 10 Norte 17 Norte 0 -- -- 38
2018-09-01 11:00:00 24.3 5 Este 10 Este 0 -- -- 45
2018-09-01 10:00:00 19.9 2 Nordeste 6 Norte 0 -- -- 58
2018-09-01 09:00:00 13.1 4 Sur 9 Sudoeste 0 -- -- 82
2018-09-01 08:00:00 8.9 9 Sur 10 Sudoeste 0 -- -- 89
2018-09-01 07:00:00 9.1 6 Sudoeste 9 Sudoeste 0 -- -- 88
2018-09-01 06:00:00 9.4 8 Sudoeste 10 Sur 0 -- -- 87
2018-09-01 05:00:00 10 7 Sudoeste 10 Sudoeste 0 -- -- 85
2018-09-01 04:00:00 10.4 7 Sudoeste 9 Sur 0 -- -- 84
2018-09-01 03:00:00 11.1 6 Sudoeste 9 Sudoeste 0 -- -- 81
2018-09-01 02:00:00 12.1 5 Sudoeste 10 Sudoeste 0 -- -- 79
2018-09-01 01:00:00 13.2 6 Sudoeste 10 Sur 0 -- -- 73
2018-09-01 00:00:00 14.7 6 Sudoeste 9 Sudoeste 0 -- -- 68
2018-08-31 23:00:00 17.8 3 Sudeste 17 Nordeste 0 -- -- 58
2018-08-31 22:00:00 20.9 4 Norte 13 Noroeste 0 -- -- 49
2018-08-31 21:00:00 23.3 10 Noroeste 21 Noroeste 0 -- -- 41
2018-08-31 20:00:00 26.9 15 Norte 21 Norte 0 -- -- 31
2018-08-31 19:00:00 28.5 13 Noroeste 21 Noroeste 0 -- -- 27
2018-08-31 18:00:00 29.2 12 Noroeste 32 Noroeste 0 -- -- 26
2018-08-31 17:00:00 29.4 13 Noroeste 24 Noroeste 0 -- -- 27
2018-08-31 16:00:00 28.9 12 Norte 28 Norte 0 -- -- 30
2018-08-31 15:00:00 28.7 15 Norte 30 Noroeste 0 -- -- 34
2018-08-31 14:00:00 28.5 16 Norte 23 Norte 0 -- -- 38
2018-08-31 13:00:00 26.4 10 Noroeste 18 Noroeste 0 -- -- 43
2018-08-31 12:00:00 24.7 6 Noroeste 10 Noroeste 0 -- -- 48
2018-08-31 11:00:00 21.2 2 Este 6 Nordeste 0 -- -- 59
2018-08-31 10:00:00 17.4 2 Sudeste 8 Nordeste 0 -- -- 70
2018-08-31 09:00:00 12.9 0 Calma 8 Sudoeste 0 -- -- 85
2018-08-31 08:00:00 10.3 6 Sur 8 Sudoeste 0 -- -- 86
2018-08-31 07:00:00 10.4 5 Sudoeste 7 Sudoeste 0 -- -- 85
2018-08-31 06:00:00 11.2 6 Sur 10 Sur 0 -- -- 82
2018-08-31 05:00:00 11.7 8 Sur 9 Sur 0 -- -- 80
2018-08-31 04:00:00 12.5 7 Sudoeste 10 Sudoeste 0 -- -- 78
2018-08-31 03:00:00 13.5 8 Sudoeste 10 Sudoeste 0 -- -- 75
2018-08-31 02:00:00 16.3 5 Sudoeste 13 Este 0 -- -- 69
2018-08-31 01:00:00 19.2 9 Este 19 Sudeste 0 -- -- 61
2018-08-31 00:00:00 19.2 7 Este 18 Este 0 -- -- 59
2018-08-30 23:00:00 16.8 0 Calma 6 Sudoeste 0 -- -- 60
2018-08-30 22:00:00 18.4 4 Sur 6 Sudoeste 0 -- -- 55
2018-08-30 21:00:00 23.9 3 Norte 22 Norte 0 -- -- 40
2018-08-30 20:00:00 27 16 Norte 25 Norte 0 -- -- 34
2018-08-30 19:00:00 28.8 15 Noroeste 22 Oeste 0 -- -- 31
2018-08-30 18:00:00 29.9 13 Oeste 26 Oeste 0 -- -- 29
2018-08-30 17:00:00 30.1 15 Sudoeste 25 Oeste 0 -- -- 30
2018-08-30 16:00:00 29.6 9 Oeste 27 Noroeste 0 -- -- 30
2018-08-30 15:00:00 28.7 8 Norte 27 Oeste 0 -- -- 37
2018-08-30 14:00:00 27.9 10 Oeste 18 Oeste 0 -- -- 38
2018-08-30 13:00:00 26.4 10 Oeste 22 Oeste 0 -- -- 41
2018-08-30 12:00:00 25.3 10 Sudoeste 19 Oeste 0 -- -- 46
2018-08-30 11:00:00 22.3 7 Oeste 12 Noroeste 0 -- -- 57
2018-08-30 10:00:00 19.2 2 Nordeste 5 Noroeste 0 -- -- 68
2018-08-30 09:00:00 14.7 2 Sur 9 Sur 0 -- -- 86
2018-08-30 08:00:00 11.4 7 Sur 9 Sudoeste 0 -- -- 90
2018-08-30 07:00:00 12.2 6 Sudoeste 9 Sudoeste 0 -- -- 86
2018-08-30 06:00:00 15 0 Calma 11 Nordeste 0 -- -- 78
2018-08-30 05:00:00 16.4 5 Nordeste 17 Este 0 -- -- 76
2018-08-30 04:00:00 17.1 9 Este 23 Este 0 -- -- 75
2018-08-30 03:00:00 17.8 13 Este 27 Este 0 -- -- 72
2018-08-30 02:00:00 18.1 15 Este 28 Este 0 -- -- 71
2018-08-30 01:00:00 18.9 13 Este 24 Este 0 -- -- 68
2018-08-30 00:00:00 19.8 13 Este 33 Este 0 -- -- 65
2018-08-29 23:00:00 20.8 19 Este 37 Nordeste 0 -- -- 61
2018-08-29 22:00:00 22.3 21 Este 35 Nordeste 0 -- -- 55
2018-08-29 21:00:00 24 15 Norte 25 Norte 0 -- -- 45
2018-08-29 20:00:00 26.5 19 Norte 26 Norte 0 -- -- 38
2018-08-29 19:00:00 28.6 15 Noroeste 26 Noroeste 0 -- -- 30
2018-08-29 18:00:00 28.4 11 Norte 23 Norte 0 -- -- 31
2018-08-29 17:00:00 29.5 14 Norte 22 Noroeste 0 -- -- 30
2018-08-29 16:00:00 28.5 6 Nordeste 22 Noroeste 0 -- -- 33
2018-08-29 15:00:00 28.2 8 Noroeste 29 Sur 0 -- -- 35
2018-08-29 14:00:00 27.3 6 Nordeste 15 Oeste 0 -- -- 35
2018-08-29 13:00:00 25.5 7 Noroeste 20 Noroeste 0 -- -- 43
2018-08-29 12:00:00 23.3 8 Oeste 18 Oeste 0 -- -- 49
2018-08-29 11:00:00 21.2 13 Oeste 21 Sudoeste 0 -- -- 59
2018-08-29 10:00:00 19.3 15 Oeste 21 Sudoeste 0 -- -- 64
2018-08-29 09:00:00 16.1 5 Sur 12 Sur 0 -- -- 72
2018-08-29 08:00:00 12.6 9 Sudoeste 11 Sur 0 -- -- 78
2018-08-29 07:00:00 14.3 4 Sudoeste 14 Este 0 -- -- 70
2018-08-29 06:00:00 14.1 7 Sudoeste 14 Sudoeste 0 -- -- 71
2018-08-29 05:00:00 15.8 8 Sudoeste 14 Sudoeste 0 -- -- 64
2018-08-29 04:00:00 16.4 9 Sur 17 Sur 0 -- -- 62
2018-08-29 03:00:00 17.7 11 Sur 16 Sur 0 -- -- 57
2018-08-29 02:00:00 17.4 8 Sur 14 Sur 0 -- -- 56
2018-08-29 01:00:00 18.5 8 Sudoeste 18 Sudoeste 0 -- -- 49
2018-08-29 00:00:00 19.5 10 Sudoeste 15 Sur 0 -- -- 45
2018-08-28 23:00:00 19.5 10 Sudoeste 16 Sudoeste 0 -- -- 44
2018-08-28 22:00:00 21 8 Sur 19 Oeste 0 -- -- 40
2018-08-28 21:00:00 25.2 11 Oeste 27 Sudoeste 0 -- -- 32
2018-08-28 20:00:00 28.7 19 Sudoeste 41 Oeste 0 -- -- 20
2018-08-28 19:00:00 30.3 28 Sudoeste 54 Sudoeste 0 -- -- 16
2018-08-28 18:00:00 30.3 23 Sur 48 Sur 0 -- -- 25
2018-08-28 17:00:00 30.2 28 Sur 54 Sudoeste 0 -- -- 25
2018-08-28 16:00:00 30.5 28 Sur 53 Sur 0 -- -- 26
2018-08-28 15:00:00 30.2 31 Sur 53 Sur 0 -- -- 30
2018-08-28 14:00:00 30.1 28 Sur 53 Sur 0 -- -- 31
2018-08-28 13:00:00 29.5 25 Sur 48 Sur 0 -- -- 32
2018-08-28 12:00:00 29.3 22 Sur 33 Sur 0 -- -- 33
2018-08-28 11:00:00 28.2 17 Sur 27 Sudoeste 0 -- -- 36
2018-08-28 10:00:00 25.1 5 Nordeste 10 Norte 0 -- -- 44
2018-08-28 09:00:00 21.9 6 Norte 13 Sur 0 -- -- 47
2018-08-28 08:00:00 20.9 8 Sur 15 Sur 0 -- -- 52
2018-08-28 07:00:00 20 2 Sudeste 40 Sur 0 -- -- 47
2018-08-28 06:00:00 24.5 19 Sur 35 Sur 0 -- -- 39
2018-08-28 05:00:00 13.8 5 Sur 9 Sudoeste 0 -- -- 59
2018-08-28 04:00:00 13.4 6 Sudoeste 11 Sur 0 -- -- 61
2018-08-28 03:00:00 14.5 2 Sudoeste 10 Sudoeste 0 -- -- 59
2018-08-28 02:00:00 15.2 6 Sur 11 Sudoeste 0 -- -- 54
2018-08-28 01:00:00 15.8 4 Sur 9 Sudoeste 0 -- -- 54
2018-08-28 00:00:00 19 0 Calma 13 Sur 0 -- -- 41
2018-08-27 23:00:00 20.8 10 Sur 17 Sur 0 -- -- 38
2018-08-27 22:00:00 22.5 12 Sur 18 Sur 0 -- -- 37
2018-08-27 21:00:00 24 9 Sur 15 Sudoeste 0 -- -- 36
2018-08-27 20:00:00 28.5 6 Sudoeste 24 Oeste 0 -- -- 27
2018-08-27 19:00:00 31.8 16 Oeste 29 Oeste 0 -- -- 22
2018-08-27 18:00:00 32.2 13 Oeste 27 Oeste 0 -- -- 21
2018-08-27 17:00:00 33.7 15 Oeste 31 Oeste 0 -- -- 19
2018-08-27 16:00:00 33.2 15 Oeste 24 Oeste 0 -- -- 22
2018-08-27 15:00:00 32.2 9 Noroeste 17 Noroeste 0 -- -- 22
2018-08-27 14:00:00 31.2 6 Norte 18 Noroeste 0 -- -- 27
2018-08-27 13:00:00 29.5 8 Sudeste 13 Sudeste 0 -- -- 29
2018-08-27 12:00:00 27.8 7 Nordeste 12 Nordeste 0 -- -- 33
2018-08-27 11:00:00 23.6 5 Nordeste 8 Nordeste 0 -- -- 44
2018-08-27 10:00:00 18.8 0 Calma 5 Nordeste 0 -- -- 55
2018-08-27 09:00:00 13.9 0 Calma 6 Sudoeste 0 -- -- 72
2018-08-27 08:00:00 9.5 5 Sudoeste 9 Sudoeste 0 -- -- 85
2018-08-27 07:00:00 9.8 4 Sur 9 Sudoeste 0 -- -- 81
2018-08-27 06:00:00 10.4 8 Sudoeste 10 Sudoeste 0 -- -- 80
2018-08-27 05:00:00 10.5 5 Sudoeste 6 Sur 0 -- -- 78
2018-08-27 04:00:00 11.9 4 Sudoeste 9 Sudoeste 0 -- -- 73
2018-08-27 03:00:00 12.9 5 Sudoeste 10 Sur 0 -- -- 69
2018-08-27 02:00:00 13.2 8 Sur 12 Sudoeste 0 -- -- 69
2018-08-27 01:00:00 14.7 9 Sudoeste 12 Sur 0 -- -- 64
2018-08-27 00:00:00 15.7 9 Sudoeste 13 Sudoeste 0 -- -- 61
2018-08-26 23:00:00 17.2 9 Sudoeste 13 Sur 0 -- -- 57
2018-08-26 22:00:00 18.9 6 Sudoeste 9 Sudoeste 0 -- -- 52
2018-08-26 21:00:00 23.7 5 Noroeste 14 Oeste 0 -- -- 38
2018-08-26 20:00:00 28.5 13 Noroeste 26 Oeste 0 -- -- 28
2018-08-26 19:00:00 29.6 13 Oeste 25 Sudoeste 0 -- -- 28
2018-08-26 18:00:00 29.9 11 Oeste 24 Oeste 0 -- -- 28
2018-08-26 17:00:00 29.4 15 Oeste 25 Noroeste 0 -- -- 28
2018-08-26 16:00:00 29 9 Sudoeste 27 Sudoeste 0 -- -- 29
2018-08-26 15:00:00 27.9 14 Oeste 25 Oeste 0 -- -- 32
2018-08-26 14:00:00 26.7 8 Oeste 21 Noroeste 0 -- -- 35
2018-08-26 13:00:00 25.5 7 Noroeste 13 Noroeste 0 -- -- 37
2018-08-26 12:00:00 23.4 5 Nordeste 11 Nordeste 0 -- -- 41
2018-08-26 11:00:00 19.2 5 Nordeste 10 Norte 0 -- -- 52
2018-08-26 10:00:00 15.6 3 Nordeste 6 Nordeste 0 -- -- 63
2018-08-26 09:00:00 11 0 Calma 8 Sur 0 -- -- 82
2018-08-26 08:00:00 7.5 6 Sur 10 Sur 0 -- -- 89
2018-08-26 07:00:00 7.7 4 Sudoeste 8 Sur 0 -- -- 87
2018-08-26 06:00:00 8 8 Sur 10 Sur 0 -- -- 85
2018-08-26 05:00:00 8.7 4 Sudoeste 9 Sur 0 -- -- 83
2018-08-26 04:00:00 9.5 0 Calma 8 Sur 0 -- -- 81
2018-08-26 03:00:00 10.3 5 Sudoeste 10 Sur 0 -- -- 78
2018-08-26 02:00:00 11 8 Sudoeste 10 Sudoeste 0 -- -- 75
2018-08-26 01:00:00 11.9 7 Sur 9 Sur 0 -- -- 70
2018-08-26 00:00:00 13.1 5 Sur 10 Sur 0 -- -- 65
2018-08-25 23:00:00 15.2 5 Sudoeste 11 Norte 0 -- -- 58
2018-08-25 22:00:00 18.1 5 Noroeste 15 Norte 0 -- -- 49
2018-08-25 21:00:00 20.2 12 Norte 23 Norte 0 -- -- 41
2018-08-25 20:00:00 23.4 18 Noroeste 27 Noroeste 0 -- -- 31
2018-08-25 19:00:00 25.2 17 Noroeste 30 Oeste 0 -- -- 31
2018-08-25 18:00:00 26.3 18 Noroeste 29 Noroeste 0 -- -- 31
2018-08-25 17:00:00 26.7 13 Noroeste 29 Noroeste 0 -- -- 33
2018-08-25 16:00:00 26.4 16 Noroeste 32 Norte 0 -- -- 36
2018-08-25 15:00:00 26.3 13 Norte 30 Sudoeste 0 -- -- 37
2018-08-25 14:00:00 25.3 10 Sudoeste 20 Sudoeste 0 -- -- 35
2018-08-25 13:00:00 23.2 11 Noroeste 22 Noroeste 0 -- -- 40
2018-08-25 12:00:00 21.1 8 Oeste 18 Oeste 0 -- -- 45
2018-08-25 11:00:00 18.8 8 Noroeste 13 Noroeste 0 -- -- 53
2018-08-25 10:00:00 15.9 0 Calma 6 Sudeste 0 -- -- 64
2018-08-25 09:00:00 11.3 0 Calma 6 Sur 0 -- -- 83
2018-08-25 08:00:00 7.4 7 Sudoeste 11 Sur 0 -- -- 89
2018-08-25 07:00:00 7.2 5 Sudoeste 10 Sur 0 -- -- 87
2018-08-25 06:00:00 7.7 5 Sudoeste 8 Sudoeste 0 -- -- 84
2018-08-25 05:00:00 8.5 7 Sudoeste 10 Sudoeste 0 -- -- 83
2018-08-25 04:00:00 9.1 8 Sudoeste 8 Sur 0 -- -- 81
2018-08-25 03:00:00 10.3 3 Sudoeste 9 Sur 0 -- -- 77
2018-08-25 02:00:00 12.1 4 Sudoeste 8 Oeste 0 -- -- 71
2018-08-25 01:00:00 14.8 3 Oeste 8 Este 0 -- -- 60
2018-08-25 00:00:00 16.1 4 Este 8 Este 0 -- -- 57
2018-08-24 23:00:00 15.4 4 Sur 6 Sudoeste 0 -- -- 61
2018-08-24 22:00:00 18.8 0 Calma 19 Norte 0 -- -- 52
2018-08-24 21:00:00 21.9 12 Norte 24 Norte 0 -- -- 42
2018-08-24 20:00:00 24 21 Norte 28 Norte 0 -- -- 38
2018-08-24 19:00:00 25.7 19 Noroeste 32 Norte 0 -- -- 35
2018-08-24 18:00:00 27.1 17 Noroeste 29 Noroeste 0 -- -- 32
2018-08-24 17:00:00 27.5 15 Noroeste 30 Oeste 0 -- -- 28
2018-08-24 16:00:00 28 14 Noroeste 30 Oeste 0 -- -- 28
2018-08-24 15:00:00 27.2 13 Oeste 29 Noroeste 0 -- -- 26
2018-08-24 14:00:00 26.4 12 Noroeste 22 Noroeste 0 -- -- 30
2018-08-24 13:00:00 25 10 Norte 24 Norte 0 -- -- 36
2018-08-24 12:00:00 23.5 8 Norte 15 Noroeste 0 -- -- 48
2018-08-24 11:00:00 21.4 2 Oeste 8 Sur 0 -- -- 60
2018-08-24 10:00:00 17.9 2 Este 10 Noroeste 0 -- -- 75
2018-08-24 09:00:00 14.6 0 Calma 8 Sudoeste 0 -- -- 86
2018-08-24 08:00:00 10.7 6 Sudoeste 10 Sur 0 -- -- 90
2018-08-24 07:00:00 10.7 8 Sudoeste 10 Sudoeste 0 -- -- 88
2018-08-24 06:00:00 11.1 8 Sudoeste 10 Sudoeste 0 -- -- 85
2018-08-24 05:00:00 11.4 6 Sudoeste 12 Sur 0 -- -- 84
2018-08-24 04:00:00 12 7 Sudoeste 14 Sudoeste 0 -- -- 82
2018-08-24 03:00:00 12.2 8 Sudoeste 11 Sur 0 -- -- 79
2018-08-24 02:00:00 13 7 Sudoeste 12 Sur 0 -- -- 77
2018-08-24 01:00:00 13.6 9 Sudoeste 10 Sudoeste 0 -- -- 75
2018-08-24 00:00:00 15.1 5 Sudoeste 10 Sudoeste 0 -- -- 70